Time;durP1;ratioP1;P1;durP2;ratioP2;P2;SDS_P1;SDS_P2;PMS_P1;PMS_P2;Temp;Humidity;BMP_temperature;BMP_pressure;BME280_temperature;BME280_humidity;BME280_pressure;Samples;Min_cycle;Max_cycle;Signal;HPM_P1;HPM_P2
2022/11/13 10:44:55;;;;;;;;;53.00;40.25;;;;;11.83;100.00;101839.00;6211893;22;49574;-72
2022/11/13 10:47:24;;;;;;;;;37.00;34.00;;;;;11.33;100.00;101721.59;6238587;22;49857;-71
2022/11/13 10:49:49;;;;;;;;;42.00;36.00;;;;;11.50;100.00;101745.81;6236312;22;49623;-72
2022/11/13 10:52:24;;;;;;;;;39.50;36.25;;;;;12.23;100.00;101858.69;6239485;22;49984;-75
2022/11/13 10:54:50;;;;;;;;;38.00;34.75;;;;;11.26;100.00;101681.06;6236176;22;49952;-74
2022/11/13 10:57:29;;;;;;;;;39.75;35.75;;;;;12.37;100.00;101852.13;6236217;22;49654;-73
2022/11/13 10:59:55;;;;;;;;;39.00;34.75;;;;;12.24;100.00;101810.44;6235853;22;49778;-79
2022/11/13 11:02:23;;;;;;;;;38.25;34.25;;;;;12.47;100.00;101840.13;6209210;22;52320;-85
2022/11/13 11:04:59;;;;;;;;;38.00;34.00;;;;;12.28;100.00;101799.19;6236032;22;49801;-73
2022/11/13 11:07:25;;;;;;;;;41.50;37.25;;;;;11.55;100.00;101665.31;6235376;22;49717;-72
2022/11/13 11:09:50;;;;;;;;;42.50;35.75;;;;;12.49;100.00;101810.34;6236446;22;49598;-71
2022/11/13 11:12:22;;;;;;;;;36.75;34.25;;;;;12.40;100.00;101780.22;6235929;22;50742;-75
2022/11/13 11:15:00;;;;;;;;;37.75;35.50;;;;;12.69;100.00;101821.47;6207831;22;49788;-76
2022/11/13 11:17:32;;;;;;;;;45.75;39.75;;;;;12.73;100.00;101807.53;6239870;22;49633;-74
2022/11/13 11:20:04;;;;;;;;;38.50;34.00;;;;;12.80;100.00;101817.41;6235503;22;49562;-74
2022/11/13 11:22:33;;;;;;;;;48.25;38.00;;;;;12.76;100.00;101796.19;6236345;22;49998;-75
2022/11/13 11:25:14;;;;;;;;;39.50;35.25;;;;;12.92;100.00;101814.22;6235316;22;49799;-73
2022/11/13 11:27:48;;;;;;;;;38.50;36.50;;;;;11.46;100.00;101548.50;6207395;22;49982;-72
2022/11/13 11:30:22;;;;;;;;;38.50;34.50;;;;;12.04;99.69;101630.88;6208106;22;50123;-85
2022/11/13 11:33:24;;;;;;;;;37.75;35.75;;;;;13.03;99.56;101793.44;6208746;22;52019;-81
2022/11/13 11:36:07;;;;;;;;;43.25;36.50;;;;;12.85;98.04;101759.56;6234510;22;49746;-82
2022/11/13 11:39:09;;;;;;;;;41.00;35.00;;;;;13.07;98.30;101792.66;6235254;22;49686;-79
2022/11/13 11:41:45;;;;;;;;;34.50;33.50;;;;;13.10;97.61;101800.66;6235002;22;49952;-81
2022/11/13 11:44:29;;;;;;;;;36.75;33.25;;;;;13.17;98.25;101771.84;6234036;22;49812;-85
2022/11/13 11:46:55;;;;;;;;;38.25;35.25;;;;;13.24;99.53;101772.06;6235672;22;49767;-84
2022/11/13 11:49:25;;;;;;;;;39.50;34.75;;;;;12.83;97.32;101713.81;6209569;22;49832;-93
2022/11/13 11:52:22;;;;;;;;;34.00;33.25;;;;;13.32;96.80;101770.53;6241748;22;49757;-93
2022/11/13 11:55:19;;;;;;;;;39.50;34.50;;;;;13.34;96.79;101761.78;6211651;22;51372;-88
2022/11/13 11:58:15;;;;;;;;;39.50;35.75;;;;;12.57;96.05;101613.94;6234731;22;49782;-86
2022/11/13 12:00:49;;;;;;;;;41.25;34.75;;;;;13.41;96.75;101770.72;6235171;22;49774;-86
2022/11/13 12:03:46;;;;;;;;;31.25;29.25;;;;;13.32;96.60;101730.97;6236766;22;49830;-86
2022/11/13 12:06:43;;;;;;;;;36.50;34.50;;;;;13.22;96.22;101692.00;6151533;22;50781;-88
2022/11/13 12:09:26;;;;;;;;;40.25;35.25;;;;;12.68;95.13;101587.84;6236166;22;49527;-86
2022/11/13 12:12:01;;;;;;;;;49.75;40.00;;;;;11.99;94.15;101462.34;6234268;22;49614;-84
2022/11/13 12:14:54;;;;;;;;;47.00;37.00;;;;;12.15;93.99;101492.56;6233300;22;50011;-85
2022/11/13 12:17:20;;;;;;;;;37.00;34.25;;;;;13.62;95.86;101730.81;6232324;22;50672;-82
2022/11/13 12:20:03;;;;;;;;;43.50;37.75;;;;;13.65;94.51;101729.13;6232260;22;49981;-73
2022/11/13 12:22:47;;;;;;;;;39.00;35.50;;;;;13.66;94.65;101728.28;6204714;22;50105;-75
2022/11/13 12:25:34;;;;;;;;;45.00;38.25;;;;;13.71;94.85;101728.41;6233038;22;49862;-72
2022/11/13 12:28:12;;;;;;;;;43.00;36.25;;;;;13.14;93.59;101632.06;6234369;22;49844;-72
2022/11/13 12:30:55;;;;;;;;;42.75;37.00;;;;;12.74;92.62;101566.03;6233661;22;49690;-71
2022/11/13 12:33:41;;;;;;;;;40.00;36.00;;;;;13.75;93.20;101725.84;6235125;22;50278;-72
2022/11/13 12:36:10;;;;;;;;;43.25;35.75;;;;;13.15;93.13;101602.19;6234526;22;49759;-72
2022/11/13 12:39:08;;;;;;;;;38.50;35.25;;;;;13.79;93.45;101704.78;6233644;22;50554;-73
2022/11/13 12:41:49;;;;;;;;;39.75;36.00;;;;;13.83;93.00;101704.03;6174198;22;49907;-71
2022/11/13 12:44:23;;;;;;;;;41.50;36.75;;;;;13.84;92.48;101695.25;6234378;22;49799;-71
2022/11/13 12:46:51;;;;;;;;;38.00;35.75;;;;;13.51;92.16;101629.41;6206822;22;49591;-72
2022/11/13 12:49:22;;;;;;;;;42.25;37.00;;;;;13.90;92.39;101693.66;6234200;22;51317;-71
2022/11/13 12:52:02;;;;;;;;;47.50;39.25;;;;;13.97;93.61;101698.19;6233448;22;49635;-70
2022/11/13 12:54:34;;;;;;;;;37.50;36.00;;;;;13.54;92.27;101613.66;6233479;22;49701;-71
2022/11/13 12:57:12;;;;;;;;;39.75;35.75;;;;;14.04;93.15;101688.66;6233592;22;49800;-70
2022/11/13 12:59:57;;;;;;;;;42.50;36.25;;;;;14.11;92.01;101690.56;6232479;22;49936;-71
2022/11/13 13:02:33;;;;;;;;;40.00;33.75;;;;;14.13;92.00;101686.22;6235623;22;49754;-72
2022/11/13 13:05:37;;;;;;;;;44.00;35.00;;;;;14.17;91.80;101685.41;6235630;22;49931;-72
2022/11/13 13:08:37;;;;;;;;;39.75;34.50;;;;;14.13;91.44;101675.66;6081809;23;50228;-72
2022/11/13 13:11:16;;;;;;;;;35.75;33.00;;;;;13.68;90.11;101602.53;6234857;22;51069;-72
2022/11/13 13:14:12;;;;;;;;;37.25;35.25;;;;;14.26;90.39;101658.28;6234850;22;49736;-73
2022/11/13 13:16:37;;;;;;;;;39.75;33.50;;;;;13.16;89.42;101487.97;6233592;22;49733;-73
2022/11/13 13:19:22;;;;;;;;;38.00;34.50;;;;;14.19;90.17;101641.44;6233983;22;49806;-70
2022/11/13 13:21:48;;;;;;;;;40.25;36.00;;;;;14.10;90.89;101613.97;6243017;22;50661;-81
2022/11/13 13:24:32;;;;;;;;;45.00;37.50;;;;;13.96;89.57;101584.63;6235581;22;49623;-84
2022/11/13 13:27:23;;;;;;;;;48.00;38.25;;;;;13.98;90.08;101585.56;6237399;22;49945;-87
2022/11/13 13:29:48;;;;;;;;;42.75;36.00;;;;;14.01;89.21;101577.72;6238648;22;49768;-85
2022/11/13 13:32:22;;;;;;;;;41.00;35.50;;;;;13.85;89.28;101549.22;6237421;22;49960;-82
2022/11/13 13:35:00;;;;;;;;;45.00;36.50;;;;;14.46;89.66;101632.28;6236805;22;50411;-74
2022/11/13 13:37:34;;;;;;;;;43.50;35.50;;;;;14.51;89.02;101635.94;6235670;22;49706;-72
2022/11/13 13:40:24;;;;;;;;;46.00;37.00;;;;;14.55;89.10;101627.19;6236452;22;49890;-79
2022/11/13 13:42:49;;;;;;;;;44.00;37.25;;;;;14.59;87.89;101629.03;6235990;22;49701;-74
2022/11/13 13:45:17;;;;;;;;;39.75;34.50;;;;;14.63;89.22;101622.03;6234649;22;49863;-72
2022/11/13 13:47:49;;;;;;;;;32.50;26.00;;;;;14.65;89.08;101625.59;6234281;22;49710;-80
2022/11/13 13:50:24;;;;;;;;;40.00;35.00;;;;;14.66;89.07;101622.09;6237904;22;49749;-75
2022/11/13 13:52:51;;;;;;;;;40.25;34.75;;;;;14.66;87.68;101625.63;6237950;22;49712;-73
2022/11/13 13:55:29;;;;;;;;;42.25;34.75;;;;;14.63;87.88;101614.13;6239770;22;49852;-73
2022/11/13 13:57:55;;;;;;;;;37.00;33.50;;;;;14.67;87.95;101614.22;6238667;22;49698;-73
2022/11/13 14:00:20;;;;;;;;;30.75;29.50;;;;;14.63;88.45;101607.06;6240264;22;49706;-74
2022/11/13 14:02:51;;;;;;;;;37.25;35.00;;;;;14.74;88.77;101610.78;6237804;22;50259;-73
2022/11/13 14:05:31;;;;;;;;;39.00;34.00;;;;;14.46;88.29;101559.22;6232221;22;49881;-71
2022/11/13 14:07:57;;;;;;;;;34.50;33.00;;;;;13.74;88.51;101443.47;6241056;22;49608;-71
2022/11/13 14:10:25;;;;;;;;;39.75;34.25;;;;;14.79;88.92;101603.84;6239889;22;49502;-71
2022/11/13 14:12:51;;;;;;;;;33.25;31.25;;;;;14.71;88.66;101588.72;6212708;22;51281;-73
2022/11/13 14:15:24;;;;;;;;;42.75;37.75;;;;;14.76;88.78;101603.75;6239929;22;49619;-78
2022/11/13 14:17:49;;;;;;;;;39.75;34.50;;;;;14.55;88.63;101567.28;6205384;22;50522;-78
2022/11/13 14:20:15;;;;;;;;;37.25;32.75;;;;;14.75;88.85;101603.75;6245835;22;49881;-73
2022/11/13 14:22:44;;;;;;;;;33.50;31.50;;;;;14.68;89.28;101593.97;6246875;22;49397;-75
2022/11/13 14:25:25;;;;;;;;;35.00;32.25;;;;;14.71;89.51;101600.16;6212419;22;49526;-73
2022/11/13 14:27:51;;;;;;;;;31.75;30.25;;;;;14.64;89.87;101593.00;6245385;22;49590;-74
2022/11/13 14:30:25;;;;;;;;;33.75;31.25;;;;;14.69;90.09;101596.63;6246845;22;49496;-75
2022/11/13 14:32:52;;;;;;;;;31.75;31.25;;;;;14.68;89.84;101597.50;6247584;22;49391;-71
2022/11/13 14:35:23;;;;;;;;;34.25;31.50;;;;;14.64;90.80;101586.81;6242096;22;50025;-74
2022/11/13 14:37:51;;;;;;;;;59.00;47.50;;;;;14.54;91.00;101575.19;6247201;22;49433;-75
2022/11/13 14:40:32;;;;;;;;;33.25;30.25;;;;;14.62;91.06;101589.44;6242603;22;49988;-73
2022/11/13 14:43:02;;;;;;;;;34.50;32.25;;;;;14.56;91.86;101574.34;6247312;22;50018;-73
2022/11/13 14:45:30;;;;;;;;;29.00;26.00;;;;;14.55;91.95;101575.22;6243439;22;49548;-74
2022/11/13 14:48:02;;;;;;;;;29.75;29.75;;;;;14.57;91.94;101583.16;6246848;22;49417;-75
2022/11/13 14:50:30;;;;;;;;;28.50;27.50;;;;;14.39;92.03;101557.31;6247529;22;49423;-75
2022/11/13 14:52:58;;;;;;;;;31.75;31.25;;;;;14.46;92.47;101568.88;6247583;22;50658;-74
2022/11/13 14:55:30;;;;;;;;;30.50;27.25;;;;;14.43;92.68;101564.41;6246661;22;49231;-73
2022/11/13 14:57:55;;;;;;;;;26.25;26.25;;;;;14.19;92.65;101522.63;6239250;22;49980;-76
2022/11/13 15:00:47;;;;;;;;;27.50;27.50;;;;;14.35;93.59;101546.66;6243223;22;49731;-76
2022/11/13 15:03:12;;;;;;;;;29.75;29.75;;;;;14.44;93.90;101563.53;6202558;22;52288;-77
2022/11/13 15:05:38;;;;;;;;;34.25;32.25;;;;;14.33;93.66;101547.50;6205828;22;57471;-74
2022/11/13 15:08:03;;;;;;;;;31.25;30.50;;;;;14.45;94.12;101560.06;6234196;22;49689;-75
2022/11/13 15:10:30;;;;;;;;;33.75;29.75;;;;;14.33;94.31;101536.94;6234972;22;49810;-76
2022/11/13 15:12:55;;;;;;;;;30.75;27.75;;;;;14.44;94.54;101552.09;6234038;22;49717;-78
2022/11/13 15:15:29;;;;;;;;;26.75;25.50;;;;;14.28;94.32;101525.44;6236126;22;49830;-76
2022/11/13 15:17:54;;;;;;;;;27.25;27.25;;;;;13.96;94.91;101481.69;6238157;22;49611;-76
2022/11/13 15:20:24;;;;;;;;;25.50;23.50;;;;;13.63;95.56;101450.28;6209901;22;50212;-74
2022/11/13 15:22:51;;;;;;;;;29.00;27.75;;;;;14.29;95.45;101547.44;6211415;22;51804;-73
2022/11/13 15:25:20;;;;;;;;;24.25;22.75;;;;;13.18;95.73;101353.56;6236337;22;49828;-74
2022/11/13 15:27:46;;;;;;;;;27.75;27.75;;;;;12.68;95.67;101278.75;6239747;22;49986;-74
2022/11/13 15:30:12;;;;;;;;;25.00;23.75;;;;;14.16;96.42;101538.38;6238190;22;49701;-76
2022/11/13 15:32:38;;;;;;;;;30.50;27.50;;;;;13.39;96.92;101419.03;6246405;22;50122;-77
2022/11/13 15:35:05;;;;;;;;;25.00;21.50;;;;;12.99;96.78;101383.03;6240820;22;49983;-76
2022/11/13 15:37:31;;;;;;;;;21.75;19.75;;;;;13.69;97.64;101479.41;6206939;22;50085;-76
2022/11/13 15:39:56;;;;;;;;;26.25;25.00;;;;;13.95;98.46;101532.72;6235611;22;49868;-75
2022/11/13 15:42:30;;;;;;;;;23.25;22.50;;;;;13.91;98.89;101529.13;6233477;22;63015;-75
2022/11/13 15:44:56;;;;;;;;;23.00;22.25;;;;;13.00;99.15;101384.81;6209075;22;49721;-76
2022/11/13 15:47:28;;;;;;;;;25.25;24.75;;;;;13.33;99.67;101440.03;6234029;22;49870;-76
2022/11/13 15:49:54;;;;;;;;;32.75;28.75;;;;;12.82;100.00;101386.19;6236053;22;49829;-77
2022/11/13 15:52:21;;;;;;;;;25.25;23.75;;;;;13.46;100.00;101471.94;6233157;22;52731;-77
2022/11/13 15:54:47;;;;;;;;;27.50;26.50;;;;;12.38;100.00;101300.97;6233343;22;50020;-76
2022/11/13 15:57:18;;;;;;;;;29.00;27.00;;;;;13.67;100.00;101513.69;6235612;22;49791;-76
2022/11/13 15:59:44;;;;;;;;;30.25;29.00;;;;;13.60;100.00;101509.13;6233080;22;49841;-80
2022/11/13 16:02:09;;;;;;;;;35.25;30.50;;;;;13.53;100.00;101507.25;6235096;22;56069;-80
2022/11/13 16:04:37;;;;;;;;;29.00;25.75;;;;;13.44;100.00;101515.88;6236011;22;50217;-79
2022/11/13 16:07:03;;;;;;;;;25.75;25.75;;;;;13.43;100.00;101500.00;6236042;22;49763;-82
2022/11/13 16:09:29;;;;;;;;;30.25;28.25;;;;;12.33;100.00;101345.59;6236794;22;49781;-84
2022/11/13 16:11:55;;;;;;;;;24.75;24.75;;;;;12.83;100.00;101418.69;6243447;22;51050;-84
2022/11/13 16:14:20;;;;;;;;;32.25;31.00;;;;;13.38;100.00;101507.81;6235835;22;49737;-84
2022/11/13 16:16:46;;;;;;;;;30.50;30.25;;;;;11.84;100.00;101256.72;6236159;22;49731;-83
2022/11/13 16:19:16;;;;;;;;;38.75;33.75;;;;;12.72;100.00;101418.47;6236202;22;49720;-83
2022/11/13 16:21:41;;;;;;;;;38.00;34.50;;;;;11.66;100.00;101253.63;6235465;22;49965;-86
2022/11/13 16:24:10;;;;;;;;;44.25;39.25;;;;;12.21;100.00;101333.91;6236876;22;49840;-83
2022/11/13 16:26:36;;;;;;;;;40.50;34.75;;;;;12.72;100.00;101439.53;6235544;22;49795;-77
2022/11/13 16:29:08;;;;;;;;;41.75;36.50;;;;;11.62;100.00;101262.31;6235441;22;49768;-74
2022/11/13 16:31:34;;;;;;;;;40.50;35.75;;;;;12.74;100.00;101460.66;6234627;22;50450;-76
2022/11/13 16:33:59;;;;;;;;;36.50;33.25;;;;;13.07;100.00;101513.25;6234830;22;50007;-74
2022/11/13 16:36:26;;;;;;;;;38.50;35.25;;;;;13.02;100.00;101526.31;6234758;22;60186;-73
2022/11/13 16:38:51;;;;;;;;;41.00;35.50;;;;;12.98;100.00;101506.00;6234380;22;49677;-74
2022/11/13 16:41:17;;;;;;;;;40.75;35.50;;;;;12.72;100.00;101471.16;6235070;22;63427;-74
2022/11/13 16:43:43;;;;;;;;;42.50;38.75;;;;;12.93;100.00;101501.47;6235623;22;49756;-74
2022/11/13 16:46:19;;;;;;;;;44.25;37.00;;;;;11.53;100.00;101272.59;6235665;22;49870;-74
2022/11/13 16:48:47;;;;;;;;;34.25;32.00;;;;;11.72;100.00;101307.28;6236457;22;49760;-76
2022/11/13 16:51:24;;;;;;;;;38.75;33.50;;;;;12.57;100.00;101481.34;6236265;22;49727;-84
2022/11/13 16:53:50;;;;;;;;;39.50;35.00;;;;;11.30;100.00;101258.88;6235785;22;49765;-73
2022/11/13 16:56:26;;;;;;;;;35.50;33.25;;;;;12.66;100.00;101501.75;6235743;22;49780;-74
2022/11/13 16:58:53;;;;;;;;;40.00;34.25;;;;;12.59;100.00;101498.97;6236497;22;49906;-73
2022/11/13 17:01:21;;;;;;;;;41.25;35.50;;;;;12.08;100.00;101440.63;6236198;22;51120;-74
2022/11/13 17:03:47;;;;;;;;;32.00;31.25;;;;;11.55;100.00;101365.53;6236298;22;49741;-74
2022/11/13 17:06:25;;;;;;;;;37.00;32.25;;;;;11.49;100.00;101334.75;6236261;22;49681;-73
2022/11/13 17:08:52;;;;;;;;;36.00;32.75;;;;;10.91;100.00;101258.72;6237719;22;49575;-78
2022/11/13 17:11:18;;;;;;;;;29.75;28.50;;;;;11.56;100.00;101388.34;6240879;22;49804;-75
2022/11/13 17:13:59;;;;;;;;;30.75;29.00;;;;;11.06;100.00;101288.91;6243525;22;50001;-78
2022/11/13 17:16:27;;;;;;;;;36.25;30.75;;;;;11.57;100.00;101384.88;6247721;22;49368;-77
2022/11/13 17:18:53;;;;;;;;;39.50;32.25;;;;;11.21;100.00;101359.41;6245144;22;49610;-85
2022/11/13 17:21:20;;;;;;;;;29.00;29.00;;;;;12.08;100.00;101518.72;6247632;22;49908;-76
2022/11/13 17:23:46;;;;;;;;;29.25;29.25;;;;;11.73;100.00;101452.81;6247810;22;49337;-76
2022/11/13 17:26:11;;;;;;;;;32.00;28.50;;;;;11.49;100.00;101429.41;6247299;22;49332;-76
2022/11/13 17:28:37;;;;;;;;;35.50;31.50;;;;;11.02;100.00;101381.63;6240299;22;49662;-76
2022/11/13 17:31:04;;;;;;;;;28.25;27.75;;;;;11.23;100.00;101407.63;6243752;22;50451;-76
2022/11/13 17:33:30;;;;;;;;;34.50;25.75;;;;;11.08;100.00;101386.16;6244510;22;49649;-77
2022/11/13 17:35:56;;;;;;;;;27.00;26.75;;;;;11.22;100.00;101415.47;6244690;22;49308;-78
2022/11/13 17:38:22;;;;;;;;;27.00;26.25;;;;;11.50;100.00;101509.16;6245273;22;49547;-79
2022/11/13 17:40:47;;;;;;;;;30.00;28.50;;;;;11.68;100.00;101544.78;6213582;22;51391;-75
2022/11/13 17:43:13;;;;;;;;;33.50;29.75;;;;;11.65;100.00;101531.50;6243417;22;49965;-76
2022/11/13 17:45:39;;;;;;;;;29.25;25.75;;;;;10.63;100.00;101356.81;6242829;22;49752;-76
2022/11/13 17:48:05;;;;;;;;;27.00;27.00;;;;;10.48;100.00;101360.75;6247075;22;49382;-76
2022/11/13 17:50:30;;;;;;;;;34.50;32.00;;;;;11.01;100.00;101490.19;6247128;22;50167;-76
2022/11/13 17:52:56;;;;;;;;;33.00;32.50;;;;;10.64;100.00;101411.13;6240760;22;49551;-76
2022/11/13 17:55:22;;;;;;;;;32.00;29.25;;;;;11.45;100.00;101533.56;6240821;22;49747;-75
2022/11/13 17:57:47;;;;;;;;;26.75;26.00;;;;;11.40;100.00;101531.66;6243750;22;49622;-76
2022/11/13 18:00:13;;;;;;;;;32.50;30.00;;;;;11.08;100.00;101497.41;6239872;22;50411;-78
2022/11/13 18:02:39;;;;;;;;;33.25;29.25;;;;;11.22;100.00;101547.78;6214605;22;49643;-78
2022/11/13 18:05:05;;;;;;;;;33.50;31.25;;;;;10.80;100.00;101485.16;6240348;22;49564;-76
2022/11/13 18:07:30;;;;;;;;;35.75;32.00;;;;;10.53;100.00;101447.53;6240387;22;49817;-76
2022/11/13 18:09:56;;;;;;;;;30.50;29.50;;;;;11.07;100.00;101536.78;6210177;22;51225;-75
2022/11/13 18:12:22;;;;;;;;;35.25;29.00;;;;;10.09;100.00;101394.47;6245211;22;49400;-76
2022/11/13 18:14:51;;;;;;;;;41.50;34.50;;;;;10.67;100.00;101525.00;6217845;22;49372;-87
2022/11/13 18:17:17;;;;;;;;;37.00;31.75;;;;;9.02;100.00;101278.13;6246962;22;49250;-85
2022/11/13 18:19:43;;;;;;;;;28.00;28.00;;;;;9.02;100.00;101259.78;6245901;22;49692;-77
2022/11/13 18:22:08;;;;;;;;;36.25;31.50;;;;;9.52;100.00;101364.56;6241476;22;49793;-78
2022/11/13 18:24:33;;;;;;;;;35.25;32.75;;;;;10.70;100.00;101575.00;6247220;22;49479;-76
2022/11/13 18:26:59;;;;;;;;;34.25;30.50;;;;;9.78;100.00;101434.50;6247773;22;49559;-77
2022/11/13 18:29:24;;;;;;;;;31.75;31.00;;;;;9.83;100.00;101422.44;6245735;22;49636;-77
2022/11/13 18:31:50;;;;;;;;;32.25;31.25;;;;;9.78;100.00;101378.56;6244114;22;49552;-79
2022/11/13 18:34:16;;;;;;;;;30.75;29.00;;;;;10.71;100.00;101571.56;6247734;22;49417;-82
2022/11/13 18:36:42;;;;;;;;;41.50;35.25;;;;;10.15;100.00;101439.28;6246265;22;49544;-76
2022/11/13 18:39:09;;;;;;;;;36.75;33.00;;;;;10.41;100.00;101486.50;6243036;22;49931;-75
2022/11/13 18:41:37;;;;;;;;;39.75;35.25;;;;;10.85;100.00;101564.09;6238941;22;49595;-82
2022/11/13 18:44:03;;;;;;;;;35.00;32.50;;;;;10.82;100.00;101546.53;6210733;22;49602;-77
2022/11/13 18:46:29;;;;;;;;;40.00;35.25;;;;;10.80;100.00;101547.28;6235918;22;49810;-72
2022/11/13 18:48:55;;;;;;;;;36.25;34.00;;;;;10.82;100.00;101543.91;6235068;22;49783;-75
2022/11/13 18:51:23;;;;;;;;;34.25;33.50;;;;;10.84;100.00;101518.56;6208433;22;49941;-72
2022/11/13 18:53:50;;;;;;;;;23.50;22.50;;;;;10.98;100.00;101523.34;6235394;22;49915;-75
2022/11/13 18:56:27;;;;;;;;;43.50;37.75;;;;;10.94;100.00;101511.88;6235960;22;49646;-71
2022/11/13 18:58:54;;;;;;;;;42.25;36.00;;;;;11.05;100.00;101520.06;6235144;22;50766;-72
2022/11/13 19:01:19;;;;;;;;;37.75;36.25;;;;;11.01;100.00;101526.09;6234578;22;49637;-71
2022/11/13 19:03:45;;;;;;;;;42.25;37.00;;;;;10.93;100.00;101515.34;6235722;22;49594;-78
2022/11/13 19:06:14;;;;;;;;;42.50;36.25;;;;;10.98;100.00;101521.59;6234429;22;49566;-70
2022/11/13 19:08:40;;;;;;;;;53.50;42.00;;;;;10.99;100.00;101512.00;6233863;22;49771;-70
2022/11/13 19:11:16;;;;;;;;;44.50;38.00;;;;;11.03;100.00;101514.78;6234512;22;49670;-72
2022/11/13 19:13:44;;;;;;;;;42.75;37.75;;;;;10.88;100.00;101467.00;6234251;22;49764;-71
2022/11/13 19:16:14;;;;;;;;;40.50;37.50;;;;;11.03;100.00;101501.63;6235183;22;49592;-70
2022/11/13 19:18:41;;;;;;;;;45.25;39.50;;;;;11.02;100.00;101498.97;6238994;22;50511;-69
2022/11/13 19:21:09;;;;;;;;;46.75;39.75;;;;;10.98;100.00;101495.34;6239463;22;49710;-76
2022/11/13 19:23:35;;;;;;;;;46.75;38.75;;;;;10.99;100.00;101512.88;6231198;22;49717;-80
2022/11/13 19:26:01;;;;;;;;;38.25;35.00;;;;;10.95;100.00;101508.38;6208479;22;50291;-86
2022/11/13 19:28:27;;;;;;;;;42.00;37.25;;;;;10.65;100.00;101457.53;6214764;22;51821;-79
2022/11/13 19:30:58;;;;;;;;;48.00;41.00;;;;;10.95;100.00;101499.63;6237171;22;49772;-79
2022/11/13 19:33:25;;;;;;;;;39.75;36.50;;;;;10.81;100.00;101472.94;6236073;22;49762;-79
2022/11/13 19:35:52;;;;;;;;;47.75;38.75;;;;;10.98;100.00;101495.34;6234411;22;49712;-77
2022/11/13 19:38:18;;;;;;;;;39.75;34.75;;;;;10.26;100.00;101376.69;6205952;22;52796;-81
2022/11/13 19:40:46;;;;;;;;;35.00;33.50;;;;;10.92;100.00;101500.44;6234996;22;49760;-78
2022/11/13 19:43:11;;;;;;;;;41.00;34.25;;;;;10.97;100.00;101493.56;6234725;22;49886;-76
2022/11/13 19:45:37;;;;;;;;;50.25;38.75;;;;;10.79;100.00;101462.34;6234185;22;51664;-78
2022/11/13 19:48:12;;;;;;;;;38.75;35.25;;;;;10.24;100.00;101384.50;6234595;22;49817;-77
2022/11/13 19:50:37;;;;;;;;;35.00;34.00;;;;;10.79;100.00;101446.59;6234202;22;49650;-75
2022/11/13 19:53:03;;;;;;;;;43.50;38.25;;;;;9.93;100.00;101327.47;6234977;22;49982;-78
2022/11/13 19:55:29;;;;;;;;;40.00;36.75;;;;;10.31;100.00;101393.44;6207241;22;49934;-80
2022/11/13 19:57:55;;;;;;;;;38.75;34.75;;;;;10.51;100.00;101426.47;6234770;22;49913;-71
2022/11/13 20:00:21;;;;;;;;;37.00;34.25;;;;;10.29;100.00;101387.28;6230630;22;49805;-74
2022/11/13 20:02:46;;;;;;;;;49.00;37.25;;;;;10.96;100.00;101483.00;6234768;22;49522;-75
2022/11/13 20:05:12;;;;;;;;;45.25;38.25;;;;;10.18;100.00;101373.78;6234510;22;49610;-81
2022/11/13 20:07:37;;;;;;;;;44.75;39.75;;;;;9.41;100.00;101212.19;6235303;22;50660;-78
2022/11/13 20:10:03;;;;;;;;;40.50;36.75;;;;;10.72;100.00;101412.25;6235040;22;49766;-75
2022/11/13 20:12:28;;;;;;;;;43.25;36.75;;;;;11.04;100.00;101474.53;6234720;22;49818;-77
2022/11/13 20:14:54;;;;;;;;;39.75;37.00;;;;;9.81;100.00;101281.63;6234548;22;49740;-76
2022/11/13 20:17:20;;;;;;;;;33.50;31.75;;;;;10.96;100.00;101454.13;6207887;22;51158;-74
2022/11/13 20:19:45;;;;;;;;;39.25;33.50;;;;;10.72;100.00;101436.78;6234673;22;49598;-74
2022/11/13 20:22:11;;;;;;;;;38.25;36.50;;;;;9.35;100.00;101230.31;6235201;22;49709;-74
2022/11/13 20:24:36;;;;;;;;;40.75;37.25;;;;;10.12;100.00;101341.19;6234988;22;49982;-74
2022/11/13 20:27:02;;;;;;;;;38.50;35.50;;;;;10.92;100.00;101484.66;6207115;22;50635;-76
2022/11/13 20:29:27;;;;;;;;;33.25;29.75;;;;;11.04;100.00;101474.53;6233281;22;49992;-74
2022/11/13 20:31:52;;;;;;;;;35.00;29.25;;;;;11.08;100.00;101468.50;6231020;22;49856;-70
2022/11/13 20:34:18;;;;;;;;;39.25;33.00;;;;;10.28;100.00;101331.28;6202596;22;49717;-70
2022/11/13 20:36:43;;;;;;;;;35.50;32.00;;;;;10.81;100.00;101444.06;6234302;22;53873;-71
2022/11/13 20:39:08;;;;;;;;;38.50;35.25;;;;;9.81;100.00;101281.63;6235056;22;49723;-70
2022/11/13 20:41:35;;;;;;;;;37.00;34.00;;;;;10.69;100.00;101439.28;6234903;22;49967;-71
2022/11/13 20:44:02;;;;;;;;;37.50;34.75;;;;;10.01;100.00;101336.50;6236409;22;49621;-69
2022/11/13 20:46:28;;;;;;;;;39.00;34.50;;;;;10.70;100.00;101466.44;6233539;22;49658;-70
2022/11/13 20:48:54;;;;;;;;;39.50;34.75;;;;;10.59;100.00;101459.09;6233647;22;49504;-70
2022/11/13 20:51:25;;;;;;;;;42.25;31.00;;;;;10.56;100.00;101473.88;6235110;22;49843;-70
2022/11/13 20:53:50;;;;;;;;;36.75;34.25;;;;;10.38;100.00;101470.66;6233982;22;49962;-69
2022/11/13 20:56:18;;;;;;;;;39.00;37.25;;;;;9.84;100.00;101336.78;6233696;22;50878;-69
2022/11/13 20:58:44;;;;;;;;;38.00;34.00;;;;;9.78;100.00;101355.84;6205608;22;49682;-70
2022/11/13 21:01:12;;;;;;;;;36.75;29.00;;;;;10.14;100.00;101406.00;6235408;22;49855;-70
2022/11/13 21:03:40;;;;;;;;;35.00;31.25;;;;;9.79;100.00;101315.69;6233972;22;49674;-70
2022/11/13 21:06:06;;;;;;;;;37.75;35.00;;;;;10.37;100.00;101396.28;6206213;22;51670;-70
2022/11/13 21:08:31;;;;;;;;;33.50;32.00;;;;;10.22;100.00;101365.19;6233010;22;49597;-72
2022/11/13 21:11:02;;;;;;;;;37.00;33.75;;;;;10.76;100.00;101446.50;6234147;22;49816;-70
2022/11/13 21:13:27;;;;;;;;;34.25;31.00;;;;;10.71;100.00;101439.31;6202050;22;49977;-70
2022/11/13 21:15:53;;;;;;;;;30.75;28.50;;;;;9.45;100.00;101251.63;6239646;22;50687;-70
2022/11/13 21:18:37;;;;;;;;;35.75;31.25;;;;;10.58;100.00;101453.81;6247237;22;49477;-69
2022/11/13 21:21:12;;;;;;;;;40.25;34.00;;;;;10.57;100.00;101434.53;6235429;22;49992;-72
2022/11/13 21:23:38;;;;;;;;;39.75;36.75;;;;;10.65;100.00;101449.66;6237923;22;49641;-70
2022/11/13 21:26:06;;;;;;;;;39.00;36.25;;;;;9.61;100.00;101286.22;6233185;22;50323;-69
2022/11/13 21:28:32;;;;;;;;;45.75;37.75;;;;;10.56;100.00;101434.50;6235794;22;49793;-71
2022/11/13 21:31:18;;;;;;;;;43.50;36.25;;;;;10.31;100.00;101399.59;6236954;22;49796;-71
2022/11/13 21:33:45;;;;;;;;;50.50;38.00;;;;;10.46;100.00;101430.69;6237875;22;49684;-72
2022/11/13 21:36:30;;;;;;;;;40.75;35.50;;;;;10.52;100.00;101433.53;6235799;22;49782;-81
2022/11/13 21:38:56;;;;;;;;;34.25;33.75;;;;;10.18;100.00;101375.50;6208528;22;49745;-72
2022/11/13 21:41:23;;;;;;;;;37.00;34.75;;;;;10.26;100.00;101408.16;6237176;22;49690;-72
2022/11/13 21:44:00;;;;;;;;;50.00;37.00;;;;;10.45;100.00;101426.28;6236230;22;49844;-75
2022/11/13 21:46:32;;;;;;;;;38.25;32.25;;;;;9.94;100.00;101338.88;6240024;22;50877;-79
2022/11/13 21:49:01;;;;;;;;;38.00;35.50;;;;;9.70;100.00;101295.28;6234718;22;49736;-71
2022/11/13 21:51:30;;;;;;;;;38.00;35.00;;;;;10.47;100.00;101418.47;6234638;22;49922;-72
2022/11/13 21:53:56;;;;;;;;;42.75;34.75;;;;;10.05;100.00;101334.88;6236315;22;49701;-70
2022/11/13 21:56:23;;;;;;;;;39.75;34.75;;;;;9.40;100.00;101215.66;6233675;22;50462;-70
2022/11/13 21:58:49;;;;;;;;;40.50;37.00;;;;;10.48;100.00;101401.88;6234722;22;49963;-70
2022/11/13 22:01:14;;;;;;;;;37.00;36.00;;;;;10.32;100.00;101372.50;6234223;22;50150;-71
2022/11/13 22:03:45;;;;;;;;;41.25;36.75;;;;;10.29;100.00;101364.53;6235711;22;49706;-71